Niederfeulen, Luxembourg
Current Conditions -  °F | °C
As of 10:20 PM on Wednesday 26 Nov 2014 (Local Time) from ELLX Reporting Station
Haze Haze  
Wind Chill: 36°   Ceiling: 100
Heat Index: 41°   Visibility: 0.62mi
Dew Point: 41°   Wind: 7mph
Humidity: 100%   Direction: 90°E
Pressure: 29.88"   Gusts: NA
Location:  49.86°N, 6.05°E
Report Text: ELLX 262120Z 09006KT 060V140 1000 R24/P1500N BR OVC001 05/05 Q1012 NOSIG
Loading
Personal Weather Stations






























Interactive Weather Map New forecast layout! Learn more

10-Day Weather Forecast

Advertisements
Track Severe Weather on mobile